Time;durP1;ratioP1;P1;durP2;ratioP2;P2;SDS_P1;SDS_P2;PMS_P1;PMS_P2;Temp;Humidity;BMP_temperature;BMP_pressure;BME280_temperature;BME280_humidity;BME280_pressure;Samples;Min_cycle;Max_cycle;Signal;HPM_P1;HPM_P2
2023/05/30 00:01:07;;;;;;;2.15;0.60;;;;;;;;;;4834831;29;20537;-76
2023/05/30 00:03:39;;;;;;;0.77;0.52;;;;;;;;;;4834857;29;20054;-75
2023/05/30 00:06:10;;;;;;;0.85;0.30;;;;;;;;;;4835041;29;20050;-75
2023/05/30 00:08:43;;;;;;;2.88;0.70;;;;;;;;;;4834470;29;20530;-76
2023/05/30 00:11:15;;;;;;;4.43;0.73;;;;;;;;;;4835155;29;20062;-75
2023/05/30 00:13:48;;;;;;;2.63;0.68;;;;;;;;;;4834184;29;20057;-75
2023/05/30 00:16:22;;;;;;;0.50;0.30;;;;;;;;;;4825048;29;20058;-75
2023/05/30 00:18:56;;;;;;;1.38;0.38;;;;;;;;;;4818529;29;20054;-75
2023/05/30 00:21:28;;;;;;;1.48;0.38;;;;;;;;;;4816480;29;20407;-74
2023/05/30 00:24:00;;;;;;;0.30;0.30;;;;;;;;;;4816465;29;20085;-76
2023/05/30 00:26:33;;;;;;;1.77;0.38;;;;;;;;;;4817049;29;20054;-76
2023/05/30 00:29:04;;;;;;;0.90;0.43;;;;;;;;;;4815164;29;20081;-75
2023/05/30 00:31:36;;;;;;;4.65;0.50;;;;;;;;;;4828506;29;20434;-76
2023/05/30 00:34:09;;;;;;;4.05;0.35;;;;;;;;;;4815759;29;20071;-76
2023/05/30 00:36:40;;;;;;;2.95;0.40;;;;;;;;;;4816532;29;20061;-75
2023/05/30 00:39:13;;;;;;;4.90;0.70;;;;;;;;;;4817231;29;20652;-75
2023/05/30 00:41:46;;;;;;;1.85;0.43;;;;;;;;;;4816327;29;20062;-75
2023/05/30 00:44:18;;;;;;;0.38;0.38;;;;;;;;;;4816541;29;20553;-75
2023/05/30 00:46:52;;;;;;;1.95;0.40;;;;;;;;;;4816688;29;20396;-76
2023/05/30 00:49:26;;;;;;;;;;;;;;;;;;4815001;29;20065;-75
2023/05/30 00:51:58;;;;;;;1.30;0.32;;;;;;;;;;4816199;29;20296;-75
2023/05/30 00:54:29;;;;;;;0.63;0.47;;;;;;;;;;4829807;29;20050;-75
2023/05/30 00:57:01;;;;;;;1.27;0.50;;;;;;;;;;4830310;29;20070;-75
2023/05/30 00:59:33;;;;;;;1.20;0.50;;;;;;;;;;4816012;29;20513;-75
2023/05/30 01:02:07;;;;;;;1.85;0.50;;;;;;;;;;4814073;29;20533;-75
2023/05/30 01:04:37;;;;;;;1.27;0.63;;;;;;;;;;4817309;29;20498;-76
2023/05/30 01:07:10;;;;;;;0.45;0.32;;;;;;;;;;4819859;29;20057;-76
2023/05/30 01:09:42;;;;;;;4.53;1.10;;;;;;;;;;4820316;29;20054;-75
2023/05/30 01:12:41;;;;;;;0.75;0.28;;;;;;;;;;4833818;29;21151;-76
2023/05/30 01:15:24;;;;;;;1.48;0.70;;;;;;;;;;4816693;29;20066;-75
2023/05/30 01:18:27;;;;;;;3.53;0.50;;;;;;;;;;4819585;29;20529;-76
2023/05/30 01:21:03;;;;;;;0.38;0.38;;;;;;;;;;4817500;29;20430;-76
2023/05/30 01:24:02;;;;;;;2.05;0.68;;;;;;;;;;4819215;29;20613;-75
2023/05/30 01:26:55;;;;;;;1.98;0.52;;;;;;;;;;4819474;29;20057;-76
2023/05/30 01:29:28;;;;;;;2.22;0.60;;;;;;;;;;4833374;29;20466;-75
2023/05/30 01:32:02;;;;;;;0.60;0.45;;;;;;;;;;4800619;29;20054;-75
2023/05/30 01:34:35;;;;;;;5.50;2.30;;;;;;;;;;4799887;29;20427;-76
2023/05/30 01:37:06;;;;;;;1.48;0.70;;;;;;;;;;4799859;29;20063;-76
2023/05/30 01:39:39;;;;;;;6.32;0.68;;;;;;;;;;4815175;29;20059;-75
2023/05/30 01:42:19;;;;;;;3.40;0.50;;;;;;;;;;4799754;29;20070;-76
2023/05/30 01:45:29;;;;;;;6.03;0.40;;;;;;;;;;4801853;29;20616;-75
2023/05/30 01:48:07;;;;;;;1.40;0.52;;;;;;;;;;4798113;29;20062;-76
2023/05/30 01:50:47;;;;;;;1.95;0.50;;;;;;;;;;4800044;29;20079;-76
2023/05/30 01:53:25;;;;;;;1.13;0.50;;;;;;;;;;4800808;29;20059;-76
2023/05/30 01:55:58;;;;;;;2.50;0.70;;;;;;;;;;4801550;29;20058;-76
2023/05/30 01:58:32;;;;;;;1.98;0.60;;;;;;;;;;4814534;29;20066;-76
2023/05/30 02:01:07;;;;;;;2.20;0.60;;;;;;;;;;4799929;29;20059;-75
2023/05/30 02:03:38;;;;;;;1.70;0.60;;;;;;;;;;4814733;29;20051;-76
2023/05/30 02:06:08;;;;;;;2.55;0.52;;;;;;;;;;4799102;29;20086;-75
2023/05/30 02:08:40;;;;;;;0.60;0.40;;;;;;;;;;4814339;29;20047;-75
2023/05/30 02:11:11;;;;;;;1.52;0.68;;;;;;;;;;4799401;29;20142;-76
2023/05/30 02:13:44;;;;;;;1.35;0.20;;;;;;;;;;4800774;29;20985;-76
2023/05/30 02:16:18;;;;;;;3.90;0.32;;;;;;;;;;4798944;29;20059;-75
2023/05/30 02:18:48;;;;;;;1.80;0.20;;;;;;;;;;4800745;29;20534;-75
2023/05/30 02:21:18;;;;;;;1.60;0.35;;;;;;;;;;4814735;29;20054;-75
2023/05/30 02:23:49;;;;;;;0.50;0.40;;;;;;;;;;4800118;29;20058;-76
2023/05/30 02:26:21;;;;;;;2.40;0.40;;;;;;;;;;4800224;29;20058;-75
2023/05/30 02:28:51;;;;;;;1.38;0.30;;;;;;;;;;4800026;29;20047;-75
2023/05/30 02:31:22;;;;;;;1.77;0.40;;;;;;;;;;4813858;29;20061;-75
2023/05/30 02:33:53;;;;;;;1.15;0.57;;;;;;;;;;4818251;29;20046;-75
2023/05/30 02:36:24;;;;;;;2.53;0.70;;;;;;;;;;4817810;29;20443;-75
2023/05/30 02:38:54;;;;;;;3.53;0.60;;;;;;;;;;4832542;29;20077;-76
2023/05/30 02:41:29;;;;;;;4.32;0.45;;;;;;;;;;4831402;29;20059;-76
2023/05/30 02:44:00;;;;;;;0.60;0.60;;;;;;;;;;4831808;29;20050;-76
2023/05/30 02:46:33;;;;;;;0.90;0.50;;;;;;;;;;4832053;29;20065;-76
2023/05/30 02:49:04;;;;;;;2.03;0.47;;;;;;;;;;4815976;29;20676;-75
2023/05/30 02:51:36;;;;;;;0.43;0.40;;;;;;;;;;4817871;29;20046;-76
2023/05/30 02:54:12;;;;;;;0.57;0.22;;;;;;;;;;4816481;29;20430;-76
2023/05/30 02:57:01;;;;;;;1.48;0.55;;;;;;;;;;4819185;29;20058;-76
2023/05/30 02:59:49;;;;;;;1.73;0.30;;;;;;;;;;4816327;29;20051;-76
2023/05/30 03:02:21;;;;;;;1.30;0.40;;;;;;;;;;4831373;29;20073;-76
2023/05/30 03:04:52;;;;;;;3.63;0.40;;;;;;;;;;4816222;29;20132;-75
2023/05/30 03:07:22;;;;;;;1.08;0.20;;;;;;;;;;4816242;29;20058;-76
2023/05/30 03:09:52;;;;;;;1.02;0.40;;;;;;;;;;4815617;29;20055;-75
2023/05/30 03:12:23;;;;;;;0.80;0.20;;;;;;;;;;4831491;29;20419;-75
2023/05/30 03:14:53;;;;;;;0.20;0.20;;;;;;;;;;4817767;29;20506;-75
2023/05/30 03:17:24;;;;;;;1.15;0.30;;;;;;;;;;4831044;29;20379;-76
2023/05/30 03:19:55;;;;;;;1.60;0.65;;;;;;;;;;4816248;29;20062;-75
2023/05/30 03:22:25;;;;;;;1.08;0.38;;;;;;;;;;4816078;29;20058;-76
2023/05/30 03:24:55;;;;;;;0.80;0.13;;;;;;;;;;4831393;29;20054;-76
2023/05/30 03:27:26;;;;;;;2.15;0.60;;;;;;;;;;4831164;29;20077;-76
2023/05/30 03:29:56;;;;;;;1.23;0.52;;;;;;;;;;4815642;29;20062;-76
2023/05/30 03:32:27;;;;;;;1.65;0.22;;;;;;;;;;4830852;29;20065;-75
2023/05/30 03:34:58;;;;;;;0.32;0.30;;;;;;;;;;4830771;29;20058;-75
2023/05/30 03:37:30;;;;;;;0.85;0.20;;;;;;;;;;4815918;29;20403;-75
2023/05/30 03:40:00;;;;;;;0.95;0.47;;;;;;;;;;4817544;29;20522;-75
2023/05/30 03:42:30;;;;;;;1.55;0.35;;;;;;;;;;4830117;29;20050;-76
2023/05/30 03:45:01;;;;;;;0.80;0.40;;;;;;;;;;4817566;29;20521;-76
2023/05/30 03:47:31;;;;;;;3.72;0.40;;;;;;;;;;4817072;29;20515;-75
2023/05/30 03:50:03;;;;;;;0.17;0.17;;;;;;;;;;4815612;29;20510;-75
2023/05/30 03:52:34;;;;;;;0.47;0.30;;;;;;;;;;4830408;29;20070;-75
2023/05/30 03:55:04;;;;;;;0.30;0.30;;;;;;;;;;4816681;29;20054;-76
2023/05/30 03:57:34;;;;;;;0.10;0.10;;;;;;;;;;4817041;29;20077;-76
2023/05/30 04:00:04;;;;;;;;;;;;;;;;;;4830826;29;20441;-76
2023/05/30 04:02:40;;;;;;;0.20;0.20;;;;;;;;;;4820483;29;19935;-76
2023/05/30 04:05:10;;;;;;;2.05;0.17;;;;;;;;;;4830593;29;20061;-75
2023/05/30 04:07:41;;;;;;;0.40;0.40;;;;;;;;;;4816706;29;20061;-76
2023/05/30 04:10:11;;;;;;;1.95;0.40;;;;;;;;;;4816545;29;20062;-76
2023/05/30 04:12:43;;;;;;;3.38;0.40;;;;;;;;;;4816902;29;20414;-75
2023/05/30 04:15:13;;;;;;;2.63;0.30;;;;;;;;;;4816844;29;20065;-76
2023/05/30 04:17:43;;;;;;;0.57;0.20;;;;;;;;;;4829807;29;20522;-76
2023/05/30 04:20:15;;;;;;;2.13;0.35;;;;;;;;;;4830334;29;20069;-75
2023/05/30 04:22:46;;;;;;;3.00;0.52;;;;;;;;;;4814550;29;20054;-76
2023/05/30 04:25:19;;;;;;;0.60;0.10;;;;;;;;;;4815296;29;20073;-76
2023/05/30 04:27:50;;;;;;;0.80;0.30;;;;;;;;;;4830236;29;20069;-76
2023/05/30 04:30:20;;;;;;;0.20;0.20;;;;;;;;;;4829640;29;20070;-76
2023/05/30 04:32:52;;;;;;;1.90;0.20;;;;;;;;;;4815534;29;20343;-76
2023/05/30 04:35:24;;;;;;;0.45;0.30;;;;;;;;;;4830535;29;20064;-75
2023/05/30 04:37:53;;;;;;;0.30;0.30;;;;;;;;;;4816813;29;20055;-76
2023/05/30 04:40:27;;;;;;;0.40;0.28;;;;;;;;;;4820667;29;20145;-76
2023/05/30 04:42:59;;;;;;;0.80;0.30;;;;;;;;;;4836562;29;20054;-75
2023/05/30 04:45:36;;;;;;;1.38;0.20;;;;;;;;;;4820525;29;20065;-75
2023/05/30 04:48:07;;;;;;;2.22;0.50;;;;;;;;;;4822197;29;20061;-75
2023/05/30 04:50:38;;;;;;;2.10;0.40;;;;;;;;;;4821081;29;20057;-76
2023/05/30 04:53:11;;;;;;;0.75;0.20;;;;;;;;;;4836293;29;20051;-75
2023/05/30 04:55:45;;;;;;;2.00;0.40;;;;;;;;;;4836365;29;20050;-75
2023/05/30 04:58:16;;;;;;;0.52;0.20;;;;;;;;;;4820930;29;20061;-76
2023/05/30 05:00:48;;;;;;;2.30;0.60;;;;;;;;;;4822613;29;20050;-76
2023/05/30 05:03:19;;;;;;;0.20;0.10;;;;;;;;;;4835997;29;20058;-77
2023/05/30 05:05:50;;;;;;;1.05;0.30;;;;;;;;;;4822226;29;20050;-76
2023/05/30 05:08:20;;;;;;;1.15;0.30;;;;;;;;;;4820833;29;20511;-76
2023/05/30 05:10:50;;;;;;;0.55;0.35;;;;;;;;;;4822600;29;20050;-76
2023/05/30 05:13:20;;;;;;;;;;;;;;;;;;4822277;29;20069;-76
2023/05/30 05:15:51;;;;;;;0.30;0.30;;;;;;;;;;4822021;29;20004;-76
2023/05/30 05:18:22;;;;;;;0.63;0.30;;;;;;;;;;4822230;29;20065;-76
2023/05/30 05:20:52;;;;;;;0.20;0.20;;;;;;;;;;4821963;29;20468;-75
2023/05/30 05:23:23;;;;;;;1.55;0.28;;;;;;;;;;4821871;29;20046;-75
2023/05/30 05:25:53;;;;;;;0.98;0.43;;;;;;;;;;4822214;29;20077;-76
2023/05/30 05:28:23;;;;;;;0.50;0.20;;;;;;;;;;4822105;29;20055;-75
2023/05/30 05:30:54;;;;;;;1.27;0.20;;;;;;;;;;4822052;29;20074;-76
2023/05/30 05:33:25;;;;;;;3.10;0.57;;;;;;;;;;4822148;29;20545;-76
2023/05/30 05:35:56;;;;;;;2.28;0.40;;;;;;;;;;4822540;29;20069;-76
2023/05/30 05:38:26;;;;;;;1.65;0.30;;;;;;;;;;4821499;29;20054;-75
2023/05/30 05:40:56;;;;;;;1.30;0.30;;;;;;;;;;4821484;29;20526;-75
2023/05/30 05:43:27;;;;;;;1.60;0.40;;;;;;;;;;4821673;29;20062;-76
2023/05/30 05:45:58;;;;;;;0.35;0.20;;;;;;;;;;4821610;29;20047;-76
2023/05/30 05:48:29;;;;;;;2.63;0.50;;;;;;;;;;4821978;29;20058;-75
2023/05/30 05:50:59;;;;;;;0.28;0.28;;;;;;;;;;4819298;29;20112;-76
2023/05/30 05:53:29;;;;;;;0.77;0.30;;;;;;;;;;4819373;29;20067;-76
2023/05/30 05:56:00;;;;;;;2.45;0.40;;;;;;;;;;4818860;29;20046;-76
2023/05/30 05:58:31;;;;;;;0.70;0.15;;;;;;;;;;4818462;29;20047;-75
2023/05/30 06:01:02;;;;;;;0.50;0.50;;;;;;;;;;4818658;29;20062;-76
2023/05/30 06:03:32;;;;;;;2.20;0.30;;;;;;;;;;4818520;29;20054;-76
2023/05/30 06:06:04;;;;;;;0.90;0.30;;;;;;;;;;4818784;29;20494;-76
2023/05/30 06:08:36;;;;;;;1.38;0.40;;;;;;;;;;4818600;29;20058;-75
2023/05/30 06:11:06;;;;;;;2.38;0.50;;;;;;;;;;4818427;29;20507;-76
2023/05/30 06:13:36;;;;;;;0.85;0.40;;;;;;;;;;4832142;29;20548;-76
2023/05/30 06:16:06;;;;;;;0.55;0.22;;;;;;;;;;4832749;29;20054;-75
2023/05/30 06:18:37;;;;;;;0.50;0.30;;;;;;;;;;4817766;29;20541;-76
2023/05/30 06:21:10;;;;;;;0.13;0.13;;;;;;;;;;4832225;29;20061;-76
2023/05/30 06:23:40;;;;;;;0.20;0.20;;;;;;;;;;4818221;29;20062;-75
2023/05/30 06:26:11;;;;;;;0.40;0.40;;;;;;;;;;4818584;29;20061;-75
2023/05/30 06:28:40;;;;;;;;;;;;;;;;;;4818842;29;20057;-76
2023/05/30 06:31:11;;;;;;;0.47;0.30;;;;;;;;;;4818490;29;19932;-76
2023/05/30 06:33:41;;;;;;;0.40;0.40;;;;;;;;;;4818340;29;20058;-76
2023/05/30 06:36:12;;;;;;;1.67;0.30;;;;;;;;;;4817569;29;20659;-75
2023/05/30 06:38:41;;;;;;;1.50;0.40;;;;;;;;;;4817559;29;20050;-76
2023/05/30 06:41:12;;;;;;;2.70;0.57;;;;;;;;;;4817936;29;20415;-75
2023/05/30 06:43:42;;;;;;;0.40;0.10;;;;;;;;;;4816659;29;20058;-76
2023/05/30 06:46:13;;;;;;;0.35;0.30;;;;;;;;;;4817788;29;20059;-76
2023/05/30 06:48:44;;;;;;;0.20;0.20;;;;;;;;;;4817979;29;20057;-77
2023/05/30 06:51:15;;;;;;;2.75;0.30;;;;;;;;;;4818109;29;20528;-76
2023/05/30 06:53:45;;;;;;;1.10;0.20;;;;;;;;;;4831408;29;20054;-75
2023/05/30 06:56:15;;;;;;;0.80;0.20;;;;;;;;;;4831321;29;20062;-75
2023/05/30 06:58:47;;;;;;;0.95;0.45;;;;;;;;;;4817667;29;20054;-76
2023/05/30 07:01:19;;;;;;;0.40;0.40;;;;;;;;;;4817719;29;20054;-75
2023/05/30 07:03:49;;;;;;;0.85;0.75;;;;;;;;;;4818042;29;20054;-76
2023/05/30 07:06:19;;;;;;;1.00;0.30;;;;;;;;;;4817594;29;20078;-76
2023/05/30 07:08:51;;;;;;;0.93;0.40;;;;;;;;;;4818490;29;20054;-76
2023/05/30 07:11:22;;;;;;;0.40;0.20;;;;;;;;;;4817274;29;20360;-76
2023/05/30 07:13:51;;;;;;;0.38;0.35;;;;;;;;;;4817206;29;20055;-75
2023/05/30 07:16:22;;;;;;;0.40;0.40;;;;;;;;;;4817358;29;20055;-75
2023/05/30 07:18:52;;;;;;;1.35;0.50;;;;;;;;;;4817470;29;20054;-76
2023/05/30 07:21:40;;;;;;;0.90;0.55;;;;;;;;;;4817384;29;20050;-76
2023/05/30 07:24:11;;;;;;;2.05;0.40;;;;;;;;;;4817326;29;20065;-76
2023/05/30 07:26:40;;;;;;;;;;;;;;;;;;4818078;29;20061;-76
2023/05/30 07:29:11;;;;;;;0.65;0.60;;;;;;;;;;4817236;29;19935;-76
2023/05/30 07:31:42;;;;;;;2.25;0.60;;;;;;;;;;4817329;29;20620;-75
2023/05/30 07:34:12;;;;;;;1.15;0.52;;;;;;;;;;4817100;29;20058;-76
2023/05/30 07:36:42;;;;;;;1.77;0.22;;;;;;;;;;4831097;29;20058;-76
2023/05/30 07:39:13;;;;;;;1.95;0.20;;;;;;;;;;4817241;29;20054;-77
2023/05/30 07:41:43;;;;;;;3.10;0.63;;;;;;;;;;4816192;29;20054;-75
2023/05/30 07:44:14;;;;;;;1.45;0.40;;;;;;;;;;4817412;29;20061;-76
2023/05/30 07:46:46;;;;;;;1.08;0.25;;;;;;;;;;4817001;29;20058;-76
2023/05/30 07:49:18;;;;;;;2.00;0.60;;;;;;;;;;4816553;29;20050;-76
2023/05/30 07:51:49;;;;;;;2.28;0.50;;;;;;;;;;4817270;29;20058;-76
2023/05/30 07:54:21;;;;;;;0.20;0.20;;;;;;;;;;4817164;29;20046;-76
2023/05/30 07:56:51;;;;;;;0.75;0.50;;;;;;;;;;4817109;29;20053;-76
2023/05/30 07:59:21;;;;;;;1.45;0.60;;;;;;;;;;4817433;29;20418;-76
2023/05/30 08:01:52;;;;;;;1.38;0.57;;;;;;;;;;4817107;29;20062;-76
2023/05/30 08:04:24;;;;;;;0.60;0.60;;;;;;;;;;4817217;29;20061;-76
2023/05/30 08:06:55;;;;;;;0.43;0.40;;;;;;;;;;4816905;29;20046;-76
2023/05/30 08:09:25;;;;;;;;;;;;;;;;;;4817341;29;20502;-76
2023/05/30 08:11:56;;;;;;;4.55;0.70;;;;;;;;;;4816927;29;19940;-76
2023/05/30 08:14:26;;;;;;;0.80;0.35;;;;;;;;;;4816382;29;20047;-76
2023/05/30 08:16:56;;;;;;;1.10;0.30;;;;;;;;;;4816990;29;20054;-75
2023/05/30 08:19:25;;;;;;;;;;;;;;;;;;4817241;29;20414;-76
2023/05/30 08:21:55;;;;;;;1.73;0.40;;;;;;;;;;4816482;29;20648;-80
2023/05/30 08:24:28;;;;;;;0.52;0.30;;;;;;;;;;4816304;29;20057;-77
2023/05/30 08:27:00;;;;;;;1.25;0.55;;;;;;;;;;4817348;29;20054;-77
2023/05/30 08:29:31;;;;;;;6.68;0.80;;;;;;;;;;4817134;29;20415;-75
2023/05/30 08:32:02;;;;;;;1.05;0.43;;;;;;;;;;4816625;29;20054;-76
2023/05/30 08:34:32;;;;;;;3.72;0.40;;;;;;;;;;4830875;29;20419;-76
2023/05/30 08:37:03;;;;;;;2.55;0.47;;;;;;;;;;4816430;29;20055;-76
2023/05/30 08:39:33;;;;;;;4.63;0.98;;;;;;;;;;4816324;29;20054;-75
2023/05/30 08:42:04;;;;;;;0.90;0.60;;;;;;;;;;4816522;29;20046;-76
2023/05/30 08:44:36;;;;;;;0.70;0.38;;;;;;;;;;4816733;29;20061;-75
2023/05/30 08:47:12;;;;;;;3.33;0.63;;;;;;;;;;4816811;29;20510;-77
2023/05/30 08:49:44;;;;;;;;;;;;;;;;;;4817572;29;20046;-76
2023/05/30 08:52:14;;;;;;;0.85;0.60;;;;;;;;;;4816509;29;19935;-75
2023/05/30 08:55:12;;;;;;;2.20;0.60;;;;;;;;;;4816193;29;20080;-76
2023/05/30 08:57:48;;;;;;;2.22;1.35;;;;;;;;;;4811884;29;20068;-76
2023/05/30 09:00:20;;;;;;;2.05;0.70;;;;;;;;;;4814852;29;20058;-76
2023/05/30 09:02:55;;;;;;;0.60;0.38;;;;;;;;;;4829697;29;20050;-76
2023/05/30 09:05:28;;;;;;;2.92;1.00;;;;;;;;;;4816319;29;20054;-76
2023/05/30 09:08:02;;;;;;;1.90;0.70;;;;;;;;;;4816486;29;20050;-75
2023/05/30 09:10:33;;;;;;;0.63;0.40;;;;;;;;;;4816033;29;20593;-76
2023/05/30 09:13:03;;;;;;;1.00;0.70;;;;;;;;;;4815780;29;20054;-75
2023/05/30 09:15:35;;;;;;;1.55;0.77;;;;;;;;;;4815947;29;20053;-75
2023/05/30 09:18:05;;;;;;;1.38;1.00;;;;;;;;;;4816775;29;20061;-77
2023/05/30 09:20:38;;;;;;;3.75;0.60;;;;;;;;;;4815899;29;20395;-77
2023/05/30 09:23:12;;;;;;;0.82;0.60;;;;;;;;;;4816502;29;20054;-74
2023/05/30 09:25:51;;;;;;;0.80;0.50;;;;;;;;;;4818209;29;20430;-76
2023/05/30 09:28:27;;;;;;;2.67;0.60;;;;;;;;;;4819105;29;20051;-75
2023/05/30 09:30:58;;;;;;;;;;;;;;;;;;4819709;29;20093;-76
2023/05/30 09:33:45;;;;;;;1.88;0.93;;;;;;;;;;4819354;29;19929;-76
2023/05/30 09:36:26;;;;;;;1.50;0.40;;;;;;;;;;4819671;29;20050;-75
2023/05/30 09:39:02;;;;;;;0.75;0.60;;;;;;;;;;4819597;29;20058;-75
2023/05/30 09:41:33;;;;;;;1.75;0.88;;;;;;;;;;4818964;29;20065;-75
2023/05/30 09:44:11;;;;;;;0.95;0.82;;;;;;;;;;4818825;29;20046;-75
2023/05/30 09:46:41;;;;;;;4.05;0.90;;;;;;;;;;4819447;29;20062;-75
2023/05/30 09:49:13;;;;;;;2.28;0.57;;;;;;;;;;4819012;29;20042;-76
2023/05/30 09:51:44;;;;;;;1.00;0.80;;;;;;;;;;4819134;29;20058;-75
2023/05/30 09:54:14;;;;;;;0.65;0.57;;;;;;;;;;4819205;29;20057;-74
2023/05/30 09:56:45;;;;;;;1.20;0.90;;;;;;;;;;4818885;29;20061;-76
2023/05/30 09:59:15;;;;;;;;;;;;;;;;;;4819411;29;20055;-79
2023/05/30 10:01:47;;;;;;;3.30;0.80;;;;;;;;;;4817465;29;19928;-76
2023/05/30 10:04:23;;;;;;;1.17;1.08;;;;;;;;;;4818535;29;20059;-75
2023/05/30 10:06:54;;;;;;;0.90;0.73;;;;;;;;;;4819154;29;20522;-79
2023/05/30 10:09:26;;;;;;;2.13;0.90;;;;;;;;;;4832492;29;20046;-76
2023/05/30 10:11:58;;;;;;;2.55;1.00;;;;;;;;;;4817148;29;20519;-75
2023/05/30 10:14:29;;;;;;;4.10;0.93;;;;;;;;;;4818466;29;20050;-76
2023/05/30 10:17:09;;;;;;;2.80;0.88;;;;;;;;;;4818116;29;20422;-76
2023/05/30 10:20:06;;;;;;;1.48;0.80;;;;;;;;;;4818211;29;20054;-76
2023/05/30 10:22:41;;;;;;;2.67;1.08;;;;;;;;;;4818517;29;20069;-76
2023/05/30 10:25:13;;;;;;;4.28;1.23;;;;;;;;;;4818528;29;20054;-76
2023/05/30 10:27:51;;;;;;;1.80;0.85;;;;;;;;;;4818765;29;20050;-75
2023/05/30 10:30:27;;;;;;;3.17;0.90;;;;;;;;;;4818257;29;20058;-76
2023/05/30 10:33:04;;;;;;;3.47;0.90;;;;;;;;;;4817734;29;20549;-76
2023/05/30 10:35:36;;;;;;;3.85;0.95;;;;;;;;;;4818723;29;20065;-76
2023/05/30 10:38:11;;;;;;;5.72;1.30;;;;;;;;;;4817271;29;20065;-76
2023/05/30 10:41:11;;;;;;;5.60;1.05;;;;;;;;;;4818422;29;20050;-76
2023/05/30 10:44:27;;;;;;;2.30;1.38;;;;;;;;;;4818069;29;20498;-77
2023/05/30 10:47:19;;;;;;;3.40;1.00;;;;;;;;;;4816857;29;20069;-76
2023/05/30 10:49:54;;;;;;;4.50;1.70;;;;;;;;;;4817970;29;20059;-76
2023/05/30 10:52:33;;;;;;;10.30;1.80;;;;;;;;;;4817326;29;20058;-77
2023/05/30 10:55:10;;;;;;;11.73;1.63;;;;;;;;;;4817863;29;20046;-76
2023/05/30 10:57:42;;;;;;;9.65;1.60;;;;;;;;;;4816367;29;20050;-75
2023/05/30 11:00:27;;;;;;;5.32;1.40;;;;;;;;;;4817924;29;20065;-75
2023/05/30 11:02:58;;;;;;;4.25;1.70;;;;;;;;;;4818012;29;20054;-75
2023/05/30 11:05:32;;;;;;;3.72;1.23;;;;;;;;;;4831189;29;20058;-75
2023/05/30 11:08:02;;;;;;;4.00;1.33;;;;;;;;;;4817732;29;20434;-75
2023/05/30 11:10:35;;;;;;;13.48;1.55;;;;;;;;;;4817399;29;20038;-76
2023/05/30 11:13:10;;;;;;;17.17;4.03;;;;;;;;;;4817295;29;20061;-76
2023/05/30 11:15:48;;;;;;;6.53;2.33;;;;;;;;;;4817804;29;20065;-78
2023/05/30 11:18:20;;;;;;;7.53;1.92;;;;;;;;;;4817911;29;20065;-75
2023/05/30 11:20:55;;;;;;;5.43;1.40;;;;;;;;;;4817398;29;20839;-76
2023/05/30 11:23:29;;;;;;;5.20;2.60;;;;;;;;;;4817189;29;20502;-75
2023/05/30 11:25:59;;;;;;;3.88;1.15;;;;;;;;;;4817250;29;20057;-75
2023/05/30 11:28:35;;;;;;;10.38;2.80;;;;;;;;;;4817962;29;20054;-74
2023/05/30 11:31:16;;;;;;;4.80;1.30;;;;;;;;;;4817636;29;20066;-74
2023/05/30 11:33:48;;;;;;;2.70;1.20;;;;;;;;;;4817371;29;20073;-75
2023/05/30 11:36:20;;;;;;;7.75;1.38;;;;;;;;;;4817231;29;20050;-75
2023/05/30 11:38:52;;;;;;;3.22;2.28;;;;;;;;;;4815768;29;20054;-75
2023/05/30 11:41:26;;;;;;;9.70;1.77;;;;;;;;;;4815694;29;20058;-74
2023/05/30 11:43:57;;;;;;;2.67;1.00;;;;;;;;;;4815862;29;20444;-74
2023/05/30 11:46:27;;;;;;;2.92;1.30;;;;;;;;;;4815639;29;20422;-74
2023/05/30 11:48:57;;;;;;;3.10;1.30;;;;;;;;;;4815407;29;20078;-75
2023/05/30 11:51:30;;;;;;;4.00;1.50;;;;;;;;;;4816598;29;20057;-75
2023/05/30 11:54:04;;;;;;;7.03;1.25;;;;;;;;;;4817012;29;20801;-75
2023/05/30 11:56:36;;;;;;;6.43;1.17;;;;;;;;;;4816922;29;20054;-74
2023/05/30 11:59:08;;;;;;;1.60;1.00;;;;;;;;;;4830502;29;20208;-75
2023/05/30 12:01:40;;;;;;;7.22;3.35;;;;;;;;;;4817167;29;20058;-73
2023/05/30 12:04:11;;;;;;;2.45;1.40;;;;;;;;;;4816840;29;20054;-75
2023/05/30 12:06:45;;;;;;;8.25;1.50;;;;;;;;;;4816975;29;20065;-75
2023/05/30 12:09:16;;;;;;;2.25;1.08;;;;;;;;;;4816781;29;20058;-74
2023/05/30 12:11:55;;;;;;;1.50;1.05;;;;;;;;;;4816779;29;20074;-74
2023/05/30 12:14:41;;;;;;;1.52;1.23;;;;;;;;;;4816696;29;20062;-75
2023/05/30 12:17:17;;;;;;;2.67;2.13;;;;;;;;;;4816858;29;20058;-75
2023/05/30 12:19:58;;;;;;;4.55;1.17;;;;;;;;;;4816139;29;20046;-74
2023/05/30 12:22:30;;;;;;;5.45;3.00;;;;;;;;;;4817087;29;20054;-75
2023/05/30 12:25:09;;;;;;;3.67;0.88;;;;;;;;;;4816838;29;20715;-75
2023/05/30 12:27:48;;;;;;;1.95;1.13;;;;;;;;;;4816686;29;20054;-74
2023/05/30 12:30:20;;;;;;;1.20;1.02;;;;;;;;;;4816435;29;20085;-75
2023/05/30 12:32:50;;;;;;;12.30;1.85;;;;;;;;;;4816126;29;20059;-75
2023/05/30 12:35:26;;;;;;;2.75;1.00;;;;;;;;;;4816729;29;20058;-74
2023/05/30 12:37:56;;;;;;;5.38;0.80;;;;;;;;;;4816591;29;20451;-75
2023/05/30 12:40:26;;;;;;;3.78;1.80;;;;;;;;;;4816152;29;20062;-75
2023/05/30 12:42:57;;;;;;;2.75;1.35;;;;;;;;;;4815966;29;20051;-74
2023/05/30 12:45:28;;;;;;;5.60;1.27;;;;;;;;;;4816504;29;20050;-75
2023/05/30 12:47:58;;;;;;;4.05;1.08;;;;;;;;;;4816429;29;20506;-74
2023/05/30 12:50:29;;;;;;;1.85;1.10;;;;;;;;;;4816075;29;20523;-75
2023/05/30 12:53:00;;;;;;;5.47;1.83;;;;;;;;;;4816236;29;20442;-75
2023/05/30 12:55:31;;;;;;;7.05;1.40;;;;;;;;;;4816377;29;20050;-75
2023/05/30 12:58:03;;;;;;;3.00;1.20;;;;;;;;;;4817275;29;20047;-75
2023/05/30 13:00:33;;;;;;;3.25;1.30;;;;;;;;;;4817959;29;20061;-75
2023/05/30 13:03:06;;;;;;;1.88;1.00;;;;;;;;;;4819556;29;20065;-76
2023/05/30 13:05:37;;;;;;;2.53;1.00;;;;;;;;;;4819696;29;20054;-74
2023/05/30 13:08:10;;;;;;;4.22;1.30;;;;;;;;;;4819819;29;20054;-76
2023/05/30 13:10:40;;;;;;;2.83;1.17;;;;;;;;;;4819849;29;20050;-75
2023/05/30 13:13:10;;;;;;;5.03;1.10;;;;;;;;;;4820056;29;20047;-75
2023/05/30 13:15:41;;;;;;;2.38;1.10;;;;;;;;;;4819790;29;20061;-76
2023/05/30 13:18:12;;;;;;;2.25;0.73;;;;;;;;;;4819174;29;20519;-75
2023/05/30 13:20:42;;;;;;;4.95;2.38;;;;;;;;;;4819922;29;20053;-76
2023/05/30 13:23:12;;;;;;;6.03;1.48;;;;;;;;;;4819498;29;20062;-75
2023/05/30 13:25:43;;;;;;;2.75;1.23;;;;;;;;;;4819331;29;20042;-74
2023/05/30 13:28:13;;;;;;;1.60;1.13;;;;;;;;;;4833357;29;20058;-75
2023/05/30 13:30:44;;;;;;;2.88;1.13;;;;;;;;;;4819289;29;20070;-75
2023/05/30 13:33:16;;;;;;;7.80;3.85;;;;;;;;;;4819537;29;20065;-75
2023/05/30 13:35:46;;;;;;;4.10;2.00;;;;;;;;;;4819316;29;20054;-75
2023/05/30 13:38:17;;;;;;;4.97;2.30;;;;;;;;;;4819215;29;20046;-74
2023/05/30 13:40:47;;;;;;;8.90;2.33;;;;;;;;;;4818853;29;20061;-76
2023/05/30 13:43:43;;;;;;;1.58;1.30;;;;;;;;;;4819168;29;20043;-75
2023/05/30 13:46:14;;;;;;;1.50;1.35;;;;;;;;;;4819161;29;20431;-75
2023/05/30 13:48:46;;;;;;;3.50;2.13;;;;;;;;;;4819414;29;20400;-74
2023/05/30 13:51:16;;;;;;;6.82;1.33;;;;;;;;;;4818749;29;20121;-75
2023/05/30 13:53:48;;;;;;;7.03;2.88;;;;;;;;;;4819251;29;20073;-74
2023/05/30 13:56:31;;;;;;;1.90;1.38;;;;;;;;;;4818907;29;20054;-77
2023/05/30 13:59:03;;;;;;;2.50;1.33;;;;;;;;;;4818583;29;20434;-75
2023/05/30 14:01:34;;;;;;;11.70;5.10;;;;;;;;;;4818685;29;20395;-75
2023/05/30 14:04:04;;;;;;;1.77;1.30;;;;;;;;;;4818986;29;20046;-77
2023/05/30 14:06:37;;;;;;;2.17;1.63;;;;;;;;;;4817756;29;20057;-74
2023/05/30 14:09:09;;;;;;;3.10;1.50;;;;;;;;;;4818763;29;20062;-75
2023/05/30 14:11:39;;;;;;;1.48;1.38;;;;;;;;;;4817221;29;20055;-75
2023/05/30 14:14:09;;;;;;;1.95;1.30;;;;;;;;;;4818402;29;20514;-75
2023/05/30 14:16:41;;;;;;;6.47;1.80;;;;;;;;;;4818670;29;20046;-76
2023/05/30 14:19:13;;;;;;;3.05;1.30;;;;;;;;;;4818899;29;20050;-75
2023/05/30 14:21:44;;;;;;;2.30;1.10;;;;;;;;;;4818267;29;20527;-76
2023/05/30 14:24:14;;;;;;;2.90;1.20;;;;;;;;;;4818687;29;20823;-75
2023/05/30 14:26:45;;;;;;;2.90;1.42;;;;;;;;;;4818656;29;20050;-74
2023/05/30 14:29:16;;;;;;;12.65;3.15;;;;;;;;;;4818289;29;20061;-74
2023/05/30 14:31:46;;;;;;;9.15;2.50;;;;;;;;;;4818193;29;20054;-74
2023/05/30 14:34:17;;;;;;;3.92;2.80;;;;;;;;;;4817915;29;20058;-77
2023/05/30 14:36:47;;;;;;;3.88;2.35;;;;;;;;;;4818581;29;20819;-76
2023/05/30 14:39:18;;;;;;;3.78;2.47;;;;;;;;;;4818024;29;20050;-79
2023/05/30 14:41:49;;;;;;;2.90;2.22;;;;;;;;;;4818455;29;20058;-75
2023/05/30 14:44:20;;;;;;;5.85;2.40;;;;;;;;;;4818684;29;20077;-76
2023/05/30 14:46:51;;;;;;;3.38;2.25;;;;;;;;;;4818077;29;20042;-76
2023/05/30 14:49:23;;;;;;;3.20;2.20;;;;;;;;;;4817889;29;20058;-76
2023/05/30 14:51:55;;;;;;;3.75;2.28;;;;;;;;;;4817973;29;20062;-75
2023/05/30 14:54:26;;;;;;;5.43;2.03;;;;;;;;;;4831718;29;20054;-76
2023/05/30 14:56:56;;;;;;;2.38;1.73;;;;;;;;;;4818154;29;20061;-76
2023/05/30 14:59:27;;;;;;;3.65;1.80;;;;;;;;;;4817778;29;20498;-76
2023/05/30 15:01:58;;;;;;;4.78;2.45;;;;;;;;;;4818336;29;20050;-76
2023/05/30 15:04:30;;;;;;;3.80;2.90;;;;;;;;;;4817926;29;20673;-75
2023/05/30 15:07:02;;;;;;;6.50;2.70;;;;;;;;;;4817530;29;20530;-76
2023/05/30 15:09:33;;;;;;;3.78;2.20;;;;;;;;;;4817779;29;20055;-75
2023/05/30 15:12:03;;;;;;;4.25;1.92;;;;;;;;;;4817229;29;20078;-75
2023/05/30 15:14:34;;;;;;;2.35;1.52;;;;;;;;;;4817794;29;20058;-75
2023/05/30 15:17:04;;;;;;;2.47;1.27;;;;;;;;;;4830951;29;20051;-75
2023/05/30 15:19:36;;;;;;;10.95;4.65;;;;;;;;;;4831383;29;20058;-78